Coldstream, Australia
Current Conditions -  °F | °C
As of 1:00 AM on Tuesday 27 Jan 2015 (Local Time) from YMEN Reporting Station
Overcast Overcast  
Wind Chill: 57°   Ceiling: 5500
Heat Index: 57°   Visibility: 6mi
Dew Point: 46°   Wind: 10mph
Humidity: 67%   Direction: 150°SSE
Pressure: 30.03"   Gusts: NA
Location:  37.72°S, 145.38°E
Report Text: YMEN 261400Z AUTO 15009KT 9999 // OVC055 14/08 Q1017
Loading
Personal Weather Stations






























Interactive Weather Map New forecast layout! Learn more

10-Day Weather Forecast

Advertisements
Track Severe Weather on mobile